Time;durP1;ratioP1;P1;durP2;ratioP2;P2;SDS_P1;SDS_P2;PMS_P1;PMS_P2;Temp;Humidity;BMP_temperature;BMP_pressure;BME280_temperature;BME280_humidity;BME280_pressure;Samples;Min_cycle;Max_cycle;Signal;HPM_P1;HPM_P2
2022/08/27 00:01:42;;;;;;;6.07;2.35;;;15.30;99.90;;;;;;5050228;28;20041;-81
2022/08/27 00:04:07;;;;;;;5.82;2.60;;;15.30;99.90;;;;;;5049314;28;20029;-82
2022/08/27 00:06:34;;;;;;;4.38;2.53;;;15.20;99.90;;;;;;5050208;28;20119;-81
2022/08/27 00:09:00;;;;;;;4.10;2.30;;;15.20;99.90;;;;;;5051379;28;20036;-81
2022/08/27 00:11:26;;;;;;;5.93;2.58;;;15.10;99.90;;;;;;5049645;28;20071;-81
2022/08/27 00:13:52;;;;;;;6.55;2.55;;;15.10;99.90;;;;;;5049642;28;20072;-81
2022/08/27 00:16:18;;;;;;;4.80;2.30;;;15.10;99.90;;;;;;5048424;28;20513;-81
2022/08/27 00:18:45;;;;;;;6.45;2.63;;;15.10;99.90;;;;;;5026811;28;20110;-81
2022/08/27 00:21:11;;;;;;;6.15;2.40;;;15.00;99.90;;;;;;5029999;28;20037;-81
2022/08/27 00:23:37;;;;;;;4.55;2.55;;;15.00;99.90;;;;;;5048953;28;20051;-81
2022/08/27 00:26:05;;;;;;;5.97;2.40;;;15.00;99.90;;;;;;5045920;28;20037;-82
2022/08/27 00:28:32;;;;;;;5.78;2.80;;;14.90;99.90;;;;;;5027502;28;20037;-81
2022/08/27 00:30:58;;;;;;;5.80;3.00;;;14.90;99.90;;;;;;5047793;28;20025;-81
2022/08/27 00:33:25;;;;;;;5.18;2.47;;;14.80;99.90;;;;;;5033756;28;20041;-81
2022/08/27 00:35:51;;;;;;;6.35;2.67;;;14.80;99.90;;;;;;5025996;28;20095;-81
2022/08/27 00:38:19;;;;;;;5.32;2.65;;;14.80;99.90;;;;;;5041496;28;20083;-81
2022/08/27 00:40:45;;;;;;;9.90;3.20;;;14.80;99.90;;;;;;5054234;28;20052;-82
2022/08/27 00:43:10;;;;;;;7.20;2.85;;;14.80;99.90;;;;;;5049691;28;20037;-82
2022/08/27 00:45:42;;;;;;;5.15;2.63;;;14.70;99.90;;;;;;5051144;28;20168;-82
2022/08/27 00:48:11;;;;;;;4.60;2.58;;;14.80;99.90;;;;;;5050034;28;20029;-81
2022/08/27 00:50:46;;;;;;;4.55;2.55;;;14.70;99.90;;;;;;5049116;28;20044;-81
2022/08/27 00:53:21;;;;;;;6.88;2.78;;;14.70;99.90;;;;;;5049238;28;20045;-82
2022/08/27 00:56:14;;;;;;;6.45;2.75;;;14.70;99.90;;;;;;5047488;28;20568;-82
2022/08/27 00:58:44;;;;;;;5.53;2.85;;;14.70;99.90;;;;;;5042562;28;20060;-82
2022/08/27 01:01:13;;;;;;;6.28;2.80;;;14.70;99.90;;;;;;5030540;28;20394;-82
2022/08/27 01:03:40;;;;;;;5.82;2.90;;;14.70;99.90;;;;;;5030835;28;20124;-83
2022/08/27 01:06:11;;;;;;;7.10;3.15;;;14.70;99.90;;;;;;5049783;28;20041;-82
2022/08/27 01:08:42;;;;;;;4.85;2.85;;;14.70;99.90;;;;;;5032816;28;20048;-81
2022/08/27 01:11:09;;;;;;;9.23;3.10;;;14.70;99.90;;;;;;5049470;28;20071;-82
2022/08/27 01:13:37;;;;;;;5.32;2.70;;;14.70;99.90;;;;;;5030403;28;20041;-82
2022/08/27 01:16:04;;;;;;;9.93;2.90;;;14.70;99.90;;;;;;5050705;28;20032;-81
2022/08/27 01:18:33;;;;;;;5.57;2.63;;;14.70;99.90;;;;;;5019928;28;20535;-82
2022/08/27 01:21:21;;;;;;;5.63;2.88;;;14.80;99.90;;;;;;5050465;28;20064;-82
2022/08/27 01:24:13;;;;;;;7.40;3.13;;;14.70;99.90;;;;;;5044322;28;20080;-81
2022/08/27 01:26:40;;;;;;;6.20;3.10;;;14.70;99.90;;;;;;5046495;28;20037;-82
2022/08/27 01:29:05;;;;;;;9.02;2.97;;;14.70;99.90;;;;;;5048399;28;20037;-81
2022/08/27 01:31:31;;;;;;;5.00;3.00;;;14.80;99.90;;;;;;5033642;28;20089;-81
2022/08/27 01:33:59;;;;;;;7.60;3.22;;;14.80;99.90;;;;;;5044661;28;20041;-82
2022/08/27 01:36:26;;;;;;;6.70;3.50;;;14.80;99.90;;;;;;5046900;28;21478;-80
2022/08/27 01:38:51;;;;;;;9.32;3.42;;;14.80;99.90;;;;;;5047119;28;20041;-80
2022/08/27 01:41:17;;;;;;;7.45;3.63;;;14.80;99.90;;;;;;5045746;28;20040;-81
2022/08/27 01:43:43;;;;;;;6.75;3.08;;;14.80;99.90;;;;;;5049312;28;20036;-83
2022/08/27 01:46:08;;;;;;;6.55;3.10;;;14.80;99.90;;;;;;5050433;28;20380;-82
2022/08/27 01:48:34;;;;;;;5.75;3.10;;;14.80;99.90;;;;;;5032522;28;20087;-81
2022/08/27 01:51:00;;;;;;;8.20;3.63;;;14.80;99.90;;;;;;5048919;28;20115;-81
2022/08/27 01:53:26;;;;;;;6.88;3.60;;;14.80;99.90;;;;;;5048499;28;20122;-82
2022/08/27 01:55:53;;;;;;;5.20;3.00;;;14.80;99.90;;;;;;5048923;28;20041;-82
2022/08/27 01:58:30;;;;;;;5.50;3.20;;;14.90;99.90;;;;;;5024388;28;20040;-81
2022/08/27 02:00:59;;;;;;;8.13;3.05;;;14.80;99.90;;;;;;5060325;28;20036;-81
2022/08/27 02:03:25;;;;;;;6.07;2.95;;;14.80;99.90;;;;;;5026369;28;20053;-81
2022/08/27 02:05:51;;;;;;;5.63;3.05;;;14.70;99.90;;;;;;5045622;28;20040;-81
2022/08/27 02:08:18;;;;;;;5.55;3.10;;;14.60;99.90;;;;;;5047050;28;20029;-81
2022/08/27 02:10:46;;;;;;;8.43;3.35;;;14.60;99.90;;;;;;5049108;28;20431;-82
2022/08/27 02:13:12;;;;;;;6.25;3.05;;;14.60;99.90;;;;;;5025743;28;20541;-82
2022/08/27 02:15:38;;;;;;;6.28;3.92;;;14.50;99.90;;;;;;5048213;28;20076;-83
2022/08/27 02:18:06;;;;;;;5.63;3.00;;;14.50;99.90;;;;;;5036188;28;20040;-82
2022/08/27 02:20:32;;;;;;;5.20;3.25;;;14.50;99.90;;;;;;5049030;28;20037;-82
2022/08/27 02:22:57;;;;;;;5.10;2.78;;;14.50;99.90;;;;;;5024828;28;20095;-81
2022/08/27 02:25:24;;;;;;;5.88;3.10;;;14.50;99.90;;;;;;5042445;28;20455;-82
2022/08/27 02:27:50;;;;;;;5.20;2.78;;;14.40;99.90;;;;;;5026329;28;20120;-81
2022/08/27 02:30:20;;;;;;;6.07;2.80;;;14.40;99.90;;;;;;5047397;28;20120;-81
2022/08/27 02:32:46;;;;;;;4.90;2.53;;;14.40;99.90;;;;;;5041008;28;20029;-81
2022/08/27 02:35:16;;;;;;;6.60;3.20;;;14.30;99.90;;;;;;5046847;28;20102;-82
2022/08/27 02:37:43;;;;;;;5.40;2.85;;;14.30;99.90;;;;;;5047306;28;20037;-82
2022/08/27 02:40:10;;;;;;;4.38;2.75;;;14.20;99.90;;;;;;5047237;28;20558;-82
2022/08/27 02:42:36;;;;;;;7.00;3.20;;;14.20;99.90;;;;;;5048668;28;20044;-81
2022/08/27 02:45:06;;;;;;;5.70;3.20;;;14.10;99.90;;;;;;5028840;28;20040;-81
2022/08/27 02:47:33;;;;;;;5.28;2.97;;;14.10;99.90;;;;;;5053168;28;20033;-81
2022/08/27 02:49:58;;;;;;;6.07;2.78;;;14.10;99.90;;;;;;5053901;28;20037;-81
2022/08/27 02:52:26;;;;;;;5.68;3.00;;;14.10;99.90;;;;;;5053759;28;20120;-81
2022/08/27 02:54:52;;;;;;;5.00;3.00;;;14.10;99.90;;;;;;5045385;28;20491;-82
2022/08/27 02:57:17;;;;;;;5.93;2.92;;;14.10;99.90;;;;;;5048058;28;20053;-81
2022/08/27 02:59:43;;;;;;;5.25;3.00;;;14.00;99.90;;;;;;5051917;28;20037;-82
2022/08/27 03:02:10;;;;;;;5.38;3.00;;;14.00;99.90;;;;;;5054411;28;20518;-81
2022/08/27 03:04:35;;;;;;;5.18;3.17;;;14.10;99.90;;;;;;5051199;28;20045;-81
2022/08/27 03:07:01;;;;;;;6.10;2.92;;;14.10;99.90;;;;;;5053367;28;20033;-81
2022/08/27 03:09:26;;;;;;;7.30;2.67;;;14.10;99.90;;;;;;5049636;28;20037;-81
2022/08/27 03:11:52;;;;;;;5.25;2.88;;;14.10;99.90;;;;;;5035668;28;20063;-81
2022/08/27 03:14:18;;;;;;;5.07;2.60;;;14.10;99.90;;;;;;5045241;28;20091;-81
2022/08/27 03:16:43;;;;;;;4.45;2.85;;;14.10;99.90;;;;;;5033277;28;20037;-81
2022/08/27 03:19:10;;;;;;;5.10;3.03;;;14.10;99.90;;;;;;5052600;28;20036;-81
2022/08/27 03:21:35;;;;;;;6.50;3.17;;;14.20;99.90;;;;;;5051577;28;20037;-81
2022/08/27 03:24:03;;;;;;;7.10;2.65;;;14.20;99.90;;;;;;5035146;28;20091;-81
2022/08/27 03:26:30;;;;;;;4.28;2.50;;;14.20;99.90;;;;;;5052741;28;20443;-81
2022/08/27 03:28:56;;;;;;;5.30;2.55;;;14.20;99.90;;;;;;5051041;28;20033;-81
2022/08/27 03:31:28;;;;;;;3.75;2.35;;;14.20;99.90;;;;;;5050365;28;20506;-82
2022/08/27 03:33:57;;;;;;;4.90;2.47;;;14.20;99.90;;;;;;5050656;28;20073;-81
2022/08/27 03:36:23;;;;;;;6.28;2.67;;;14.10;99.90;;;;;;5049715;28;20511;-82
2022/08/27 03:38:49;;;;;;;4.57;2.35;;;14.20;99.90;;;;;;5050726;28;20431;-81
2022/08/27 03:41:15;;;;;;;4.25;2.35;;;14.10;99.90;;;;;;5052615;28;20110;-81
2022/08/27 03:43:40;;;;;;;5.53;2.55;;;14.10;99.90;;;;;;5050657;28;20037;-84
2022/08/27 03:46:07;;;;;;;5.88;2.80;;;14.10;99.90;;;;;;5051695;28;20066;-81
2022/08/27 03:48:34;;;;;;;7.18;2.97;;;14.10;99.90;;;;;;5051368;28;20402;-81
2022/08/27 03:51:07;;;;;;;4.65;2.40;;;14.00;99.90;;;;;;5052446;28;20033;-81
2022/08/27 03:53:35;;;;;;;5.80;3.00;;;14.00;99.90;;;;;;5050025;28;20041;-81
2022/08/27 03:56:02;;;;;;;5.40;2.63;;;13.90;99.90;;;;;;5034054;28;20124;-81
2022/08/27 03:58:27;;;;;;;4.47;2.58;;;13.90;99.90;;;;;;5042791;28;20045;-81
2022/08/27 04:00:53;;;;;;;4.13;2.30;;;13.90;99.90;;;;;;5027592;28;20037;-81
2022/08/27 04:03:19;;;;;;;10.13;2.30;;;13.80;99.90;;;;;;5050508;28;20510;-81
2022/08/27 04:05:44;;;;;;;4.78;2.35;;;13.80;99.90;;;;;;5049569;28;20535;-81
2022/08/27 04:08:10;;;;;;;4.65;2.53;;;13.80;99.90;;;;;;5050712;28;20033;-81
2022/08/27 04:10:40;;;;;;;5.70;2.40;;;13.80;99.90;;;;;;5052631;28;20037;-81
2022/08/27 04:13:06;;;;;;;6.53;2.67;;;13.70;99.90;;;;;;5049405;28;20421;-82
2022/08/27 04:15:31;;;;;;;3.75;2.28;;;13.70;99.90;;;;;;5051638;28;20050;-82
2022/08/27 04:17:57;;;;;;;6.18;2.60;;;13.70;99.90;;;;;;5044132;28;20128;-81
2022/08/27 04:20:23;;;;;;;4.25;2.65;;;13.60;99.90;;;;;;5050724;28;20051;-81
2022/08/27 04:22:49;;;;;;;6.65;2.78;;;13.50;99.90;;;;;;5051714;28;20037;-81
2022/08/27 04:25:14;;;;;;;6.07;2.45;;;13.50;99.90;;;;;;5050409;28;20071;-82
2022/08/27 04:27:40;;;;;;;5.40;2.63;;;13.50;99.90;;;;;;5050456;28;20052;-82
2022/08/27 04:30:08;;;;;;;4.35;2.30;;;13.50;99.90;;;;;;5048722;28;20064;-81
2022/08/27 04:32:34;;;;;;;4.57;2.05;;;13.50;99.90;;;;;;5043547;28;20041;-81
2022/08/27 04:35:00;;;;;;;4.72;2.45;;;13.40;99.90;;;;;;5050168;28;20037;-81
2022/08/27 04:37:31;;;;;;;5.38;2.80;;;13.40;99.90;;;;;;5032050;28;20561;-81
2022/08/27 04:39:57;;;;;;;6.07;3.05;;;13.30;99.90;;;;;;5048840;28;20044;-81
2022/08/27 04:42:23;;;;;;;5.35;2.60;;;13.30;99.90;;;;;;5047248;28;20465;-81
2022/08/27 04:44:49;;;;;;;3.97;2.33;;;13.30;99.90;;;;;;5050334;28;20045;-81
2022/08/27 04:47:15;;;;;;;5.15;2.53;;;13.30;99.90;;;;;;5050535;28;20487;-80
2022/08/27 04:49:42;;;;;;;4.47;2.53;;;13.30;99.90;;;;;;5030751;28;20540;-81
2022/08/27 04:52:08;;;;;;;4.55;2.63;;;13.30;99.90;;;;;;5051650;28;20843;-81
2022/08/27 04:54:34;;;;;;;5.03;2.38;;;13.30;99.90;;;;;;5031248;28;20044;-81
2022/08/27 04:57:02;;;;;;;6.72;2.90;;;13.40;99.90;;;;;;5045624;28;20037;-80
2022/08/27 04:59:28;;;;;;;4.60;2.78;;;13.30;99.90;;;;;;5031826;28;20414;-80
2022/08/27 05:01:54;;;;;;;4.65;2.55;;;13.30;99.90;;;;;;5049088;28;20041;-81
2022/08/27 05:04:20;;;;;;;4.55;2.58;;;13.40;99.90;;;;;;5047642;28;20040;-80
2022/08/27 05:06:47;;;;;;;5.03;2.75;;;13.40;99.90;;;;;;5050806;28;20033;-80
2022/08/27 05:09:13;;;;;;;6.47;3.10;;;13.50;99.90;;;;;;5048793;28;20431;-81
2022/08/27 05:11:39;;;;;;;5.53;2.90;;;13.60;99.90;;;;;;5048371;28;20074;-80
2022/08/27 05:14:06;;;;;;;3.47;2.63;;;13.60;99.90;;;;;;5046516;28;20052;-80
2022/08/27 05:16:33;;;;;;;3.80;2.67;;;13.70;99.90;;;;;;5048556;28;21033;-81
2022/08/27 05:18:58;;;;;;;6.03;2.80;;;13.80;99.90;;;;;;5049941;28;20033;-80
2022/08/27 05:21:27;;;;;;;6.43;3.67;;;13.90;99.90;;;;;;5048864;28;20174;-81
2022/08/27 05:23:55;;;;;;;7.78;2.88;;;14.00;99.90;;;;;;5048817;28;20090;-81
2022/08/27 05:26:22;;;;;;;5.80;2.90;;;14.00;99.90;;;;;;5021933;28;20442;-80
2022/08/27 05:28:47;;;;;;;7.03;3.17;;;14.10;99.90;;;;;;5049765;28;20048;-80
2022/08/27 05:31:14;;;;;;;5.53;3.13;;;14.20;99.90;;;;;;5049953;28;20029;-80
2022/08/27 05:33:42;;;;;;;7.30;3.20;;;14.30;99.90;;;;;;5049843;28;20427;-80
2022/08/27 05:36:17;;;;;;;5.38;3.13;;;14.30;99.90;;;;;;5051006;28;20053;-81
2022/08/27 05:38:42;;;;;;;5.68;3.08;;;14.40;99.90;;;;;;5050138;28;20094;-80
2022/08/27 05:41:14;;;;;;;7.53;2.97;;;14.50;99.90;;;;;;5029154;28;20029;-80
2022/08/27 05:43:41;;;;;;;4.65;3.40;;;14.50;99.90;;;;;;5028939;28;20557;-81
2022/08/27 05:46:12;;;;;;;4.63;3.00;;;14.60;99.90;;;;;;5048206;28;20040;-80
2022/08/27 05:48:39;;;;;;;4.93;3.10;;;14.60;99.90;;;;;;5048106;28;20136;-80
2022/08/27 05:51:18;;;;;;;7.32;3.20;;;14.70;99.90;;;;;;5049288;28;20024;-81
2022/08/27 05:53:44;;;;;;;7.25;3.05;;;14.70;99.90;;;;;;5040231;28;20041;-81
2022/08/27 05:56:17;;;;;;;6.38;2.90;;;14.70;99.90;;;;;;5050701;28;20091;-80
2022/08/27 06:01:29;;;;;;;4.68;2.58;;;14.90;99.90;;;;;;5048139;28;20056;-81
2022/08/27 06:03:55;;;;;;;5.97;2.90;;;15.00;99.90;;;;;;5049296;28;20171;-80
2022/08/27 06:06:21;;;;;;;4.65;2.63;;;15.00;99.90;;;;;;5041988;28;20057;-80
2022/08/27 06:08:48;;;;;;;4.25;2.90;;;15.10;99.90;;;;;;5048436;28;20043;-80
2022/08/27 06:11:20;;;;;;;4.88;2.65;;;15.10;99.90;;;;;;5047510;28;20036;-80
2022/08/27 06:13:47;;;;;;;5.45;2.65;;;15.20;99.90;;;;;;5043528;28;20040;-80
2022/08/27 06:16:15;;;;;;;7.97;2.88;;;15.20;99.90;;;;;;5047889;28;20380;-80
2022/08/27 06:18:44;;;;;;;6.78;2.72;;;15.30;99.90;;;;;;5051792;28;20041;-80
2022/08/27 06:21:10;;;;;;;4.53;2.97;;;15.40;99.90;;;;;;5053514;28;20045;-79
2022/08/27 06:23:36;;;;;;;4.60;2.85;;;15.50;99.90;;;;;;5051690;28;20037;-80
2022/08/27 06:26:06;;;;;;;6.20;2.80;;;15.60;99.90;;;;;;5048751;28;20084;-80
2022/08/27 06:28:32;;;;;;;4.25;2.53;;;15.60;99.90;;;;;;5051944;28;20053;-80
2022/08/27 06:31:06;;;;;;;6.75;2.70;;;15.70;99.90;;;;;;5049054;28;20047;-79
2022/08/27 06:33:33;;;;;;;7.85;2.65;;;15.70;99.90;;;;;;5050506;28;20056;-80
2022/08/27 06:36:00;;;;;;;6.80;2.70;;;15.80;99.90;;;;;;5048262;28;20033;-79
2022/08/27 06:38:26;;;;;;;7.78;3.10;;;16.00;99.90;;;;;;5032345;28;20036;-79
2022/08/27 06:40:52;;;;;;;5.22;2.60;;;15.90;99.90;;;;;;5032710;28;20041;-80
2022/08/27 06:43:18;;;;;;;6.25;2.83;;;16.00;99.90;;;;;;5052488;28;20048;-79
2022/08/27 06:45:44;;;;;;;4.53;2.70;;;16.10;99.90;;;;;;5050606;28;20118;-80
2022/08/27 06:48:09;;;;;;;5.90;2.58;;;16.20;99.90;;;;;;5034839;28;20033;-79
2022/08/27 06:50:39;;;;;;;5.50;2.55;;;16.40;99.90;;;;;;5052644;28;20060;-79
2022/08/27 06:53:05;;;;;;;5.45;2.67;;;16.30;99.90;;;;;;5050892;28;20033;-79
2022/08/27 06:55:31;;;;;;;4.90;2.30;;;16.50;99.90;;;;;;5046002;28;20041;-79
2022/08/27 06:57:57;;;;;;;5.65;2.28;;;16.60;99.90;;;;;;5049754;28;20051;-79
2022/08/27 07:00:22;;;;;;;6.43;2.83;;;16.80;99.90;;;;;;5052404;28;20037;-79
2022/08/27 07:02:49;;;;;;;6.47;2.83;;;16.80;99.90;;;;;;5049921;28;20045;-79
2022/08/27 07:05:15;;;;;;;5.30;2.50;;;16.90;99.90;;;;;;5051707;28;20037;-79
2022/08/27 07:07:40;;;;;;;5.03;2.90;;;17.00;99.90;;;;;;5048553;28;20106;-79
2022/08/27 07:10:07;;;;;;;6.88;2.80;;;17.10;99.90;;;;;;5031247;28;20131;-79
2022/08/27 07:12:32;;;;;;;5.57;2.13;;;17.20;99.90;;;;;;5046409;28;20522;-79
2022/08/27 07:14:58;;;;;;;5.38;2.30;;;17.30;99.90;;;;;;5036251;28;20064;-79
2022/08/27 07:17:24;;;;;;;7.05;2.60;;;17.30;99.90;;;;;;5027789;28;20458;-80
2022/08/27 07:19:49;;;;;;;6.07;2.85;;;17.40;99.90;;;;;;5039757;28;20067;-79
2022/08/27 07:22:15;;;;;;;4.80;2.30;;;17.50;99.90;;;;;;5048613;28;20115;-79
2022/08/27 07:24:40;;;;;;;9.73;2.30;;;17.60;99.90;;;;;;5049450;28;20041;-79
2022/08/27 07:27:07;;;;;;;8.80;2.15;;;17.70;99.90;;;;;;5050050;28;20033;-78
2022/08/27 07:29:32;;;;;;;5.47;1.75;;;17.80;99.90;;;;;;5048201;28;20040;-79
2022/08/27 07:31:58;;;;;;;4.32;1.65;;;17.90;99.90;;;;;;5050962;28;20040;-79
2022/08/27 07:34:23;;;;;;;8.63;2.08;;;18.00;99.90;;;;;;5031535;28;20130;-79
2022/08/27 07:36:50;;;;;;;4.90;1.92;;;18.10;99.90;;;;;;5052924;28;20392;-79
2022/08/27 07:39:16;;;;;;;8.65;2.10;;;18.10;99.90;;;;;;5049735;28;20530;-79
2022/08/27 07:44:26;;;;;;;5.72;1.88;;;18.10;99.90;;;;;;5052038;28;20045;-79
2022/08/27 07:46:54;;;;;;;7.07;2.10;;;18.10;99.90;;;;;;5050597;28;20033;-78
2022/08/27 07:49:21;;;;;;;10.02;1.80;;;18.30;99.90;;;;;;5050436;28;20041;-81
2022/08/27 07:51:46;;;;;;;6.85;1.83;;;18.40;99.90;;;;;;5051684;28;20060;-79
2022/08/27 07:54:12;;;;;;;6.43;1.55;;;18.50;99.90;;;;;;5052219;28;20076;-78
2022/08/27 07:56:38;;;;;;;7.80;1.60;;;18.60;99.90;;;;;;5050544;28;20071;-79
2022/08/27 07:59:03;;;;;;;7.32;1.30;;;18.70;99.90;;;;;;5050098;28;20037;-80
2022/08/27 08:01:29;;;;;;;6.13;1.52;;;18.70;99.90;;;;;;5050819;28;20060;-78
2022/08/27 08:03:55;;;;;;;7.20;1.42;;;18.70;99.90;;;;;;5052491;28;20044;-78
2022/08/27 08:06:21;;;;;;;4.88;1.48;;;18.80;99.90;;;;;;5052474;28;20037;-79
2022/08/27 08:08:47;;;;;;;5.53;1.33;;;18.80;99.90;;;;;;5052048;28;20122;-80
2022/08/27 08:11:14;;;;;;;5.32;1.38;;;18.80;99.90;;;;;;5052469;28;20490;-80
2022/08/27 08:13:41;;;;;;;5.78;1.27;;;18.80;99.90;;;;;;5032357;28;20045;-80
2022/08/27 08:16:06;;;;;;;8.30;1.73;;;18.70;99.90;;;;;;5048804;28;20044;-77
2022/08/27 08:18:34;;;;;;;8.45;1.13;;;18.80;99.90;;;;;;5050556;28;20511;-79
2022/08/27 08:21:02;;;;;;;8.40;1.42;;;18.80;99.90;;;;;;5032041;28;20556;-78
2022/08/27 08:23:28;;;;;;;5.15;1.30;;;19.00;99.90;;;;;;5047032;28;20037;-81
2022/08/27 08:25:56;;;;;;;10.85;1.50;;;19.10;99.90;;;;;;5048783;28;20059;-80
2022/08/27 08:28:22;;;;;;;5.63;1.60;;;19.20;99.90;;;;;;5032994;28;20033;-80
2022/08/27 08:30:47;;;;;;;5.10;1.70;;;19.30;99.90;;;;;;5025548;28;20052;-78
2022/08/27 08:33:13;;;;;;;5.93;1.45;;;19.50;99.90;;;;;;5041989;28;20033;-80
2022/08/27 08:35:39;;;;;;;7.28;1.77;;;19.50;99.90;;;;;;5048789;28;21567;-80
2022/08/27 08:38:05;;;;;;;4.63;1.30;;;19.60;99.90;;;;;;5052060;28;20032;-80
2022/08/27 08:40:38;;;;;;;6.72;1.30;;;19.70;99.90;;;;;;5050369;28;20041;-80
2022/08/27 08:43:06;;;;;;;5.53;1.27;;;19.70;99.90;;;;;;5047961;28;20072;-80
2022/08/27 08:45:34;;;;;;;6.88;1.50;;;19.70;99.90;;;;;;5034757;28;20138;-82
2022/08/27 08:48:09;;;;;;;5.85;1.38;;;19.80;99.90;;;;;;5043655;28;20124;-80
2022/08/27 08:50:54;;;;;;;6.90;1.50;;;19.90;99.90;;;;;;5048231;28;20445;-80
2022/08/27 08:53:39;;;;;;;6.72;1.40;;;19.90;99.90;;;;;;5049109;28;20040;-79
2022/08/27 08:56:14;;;;;;;7.50;1.38;;;19.90;99.90;;;;;;5052598;28;20032;-78
2022/08/27 08:58:48;;;;;;;7.10;1.45;;;19.80;99.90;;;;;;5053142;28;20051;-80
2022/08/27 09:01:16;;;;;;;5.65;1.20;;;19.80;99.90;;;;;;5035981;28;20041;-79
2022/08/27 09:03:54;;;;;;;10.02;1.70;;;19.70;99.90;;;;;;5052219;28;20052;-79
2022/08/27 09:06:24;;;;;;;5.30;1.33;;;19.60;99.90;;;;;;5046167;28;20127;-79
2022/08/27 09:08:50;;;;;;;6.15;1.63;;;19.50;99.90;;;;;;5052902;28;20035;-81
2022/08/27 09:11:39;;;;;;;7.88;1.30;;;19.40;99.90;;;;;;5029471;28;20112;-80
2022/08/27 09:14:20;;;;;;;5.15;1.10;;;19.30;99.90;;;;;;5052001;28;20036;-80
2022/08/27 09:16:45;;;;;;;5.55;1.33;;;19.30;99.90;;;;;;5044319;28;20043;-81
2022/08/27 09:19:11;;;;;;;5.07;1.33;;;19.20;99.90;;;;;;5048052;28;20045;-83
2022/08/27 09:21:43;;;;;;;5.45;1.35;;;19.20;99.90;;;;;;5049761;28;20047;-81
2022/08/27 09:24:37;;;;;;;4.82;1.23;;;19.30;99.90;;;;;;5052559;28;20102;-80
2022/08/27 09:27:03;;;;;;;4.35;1.10;;;19.40;99.90;;;;;;5044614;28;20051;-81
2022/08/27 09:29:29;;;;;;;4.28;1.10;;;19.40;99.90;;;;;;5035422;28;20033;-79
2022/08/27 09:31:56;;;;;;;4.90;1.45;;;19.50;99.90;;;;;;5051685;28;20446;-79
2022/08/27 09:34:23;;;;;;;6.45;1.55;;;19.70;99.90;;;;;;5034202;28;20040;-79
2022/08/27 09:36:59;;;;;;;7.72;1.60;;;19.80;99.90;;;;;;5047700;28;20034;-81
2022/08/27 09:39:33;;;;;;;6.05;1.30;;;19.80;99.90;;;;;;5047820;28;20037;-78
2022/08/27 09:42:01;;;;;;;5.95;1.30;;;19.70;99.90;;;;;;5049705;28;20043;-79
2022/08/27 09:44:27;;;;;;;4.97;1.50;;;19.90;99.90;;;;;;5029634;28;20091;-80
2022/08/27 09:47:01;;;;;;;6.85;1.38;;;19.70;99.90;;;;;;5051358;28;20033;-80
2022/08/27 09:49:28;;;;;;;6.88;1.33;;;19.70;99.90;;;;;;5043426;28;20041;-79
2022/08/27 09:51:55;;;;;;;6.78;1.23;;;19.80;99.90;;;;;;5038496;28;20516;-80
2022/08/27 09:54:41;;;;;;;5.75;1.08;;;19.90;99.90;;;;;;5047695;28;20037;-79
2022/08/27 09:57:09;;;;;;;5.88;1.10;;;20.00;99.90;;;;;;5042924;28;20055;-79
2022/08/27 09:59:38;;;;;;;5.70;1.30;;;20.00;99.90;;;;;;5045432;28;20072;-79
2022/08/27 10:02:18;;;;;;;4.03;1.02;;;20.00;99.90;;;;;;5044386;28;20052;-81
2022/08/27 10:04:46;;;;;;;5.30;1.20;;;20.10;99.90;;;;;;5047770;28;20041;-80
2022/08/27 10:07:45;;;;;;;7.22;1.15;;;20.10;99.90;;;;;;5046237;28;20040;-80
2022/08/27 10:10:36;;;;;;;6.15;1.17;;;20.10;99.90;;;;;;5045779;28;20450;-80
2022/08/27 10:13:07;;;;;;;4.60;1.33;;;20.20;99.90;;;;;;5044262;28;20073;-80
2022/08/27 10:15:40;;;;;;;12.05;1.98;;;20.20;99.90;;;;;;5047101;28;20048;-81
2022/08/27 10:18:17;;;;;;;6.27;1.33;;;20.30;99.90;;;;;;5025843;28;20036;-79
2022/08/27 10:21:15;;;;;;;5.78;1.30;;;20.30;99.90;;;;;;5051729;28;20063;-80
2022/08/27 10:24:01;;;;;;;5.60;1.13;;;20.30;99.90;;;;;;5026890;28;20042;-81
2022/08/27 10:26:42;;;;;;;3.10;0.90;;;20.50;99.90;;;;;;5041184;28;20372;-79
2022/08/27 10:29:42;;;;;;;6.38;1.45;;;20.70;99.90;;;;;;5058060;28;20068;-80
2022/08/27 10:32:24;;;;;;;5.35;1.38;;;20.80;99.90;;;;;;5051324;28;20049;-79
2022/08/27 10:35:21;;;;;;;7.38;1.27;;;20.80;99.90;;;;;;5050727;28;20047;-81
2022/08/27 10:38:01;;;;;;;5.40;1.08;;;20.80;99.90;;;;;;5050478;28;20479;-79
2022/08/27 10:40:34;;;;;;;6.93;1.10;;;20.80;99.90;;;;;;5052764;28;20527;-80
2022/08/27 10:43:11;;;;;;;7.20;1.63;;;20.70;99.90;;;;;;5037249;28;20037;-79
2022/08/27 10:46:35;;;;;;;2.90;1.02;;;20.70;99.90;;;;;;5050663;28;20519;-80
2022/08/27 10:49:21;;;;;;;5.10;0.95;;;20.70;99.90;;;;;;5067217;28;20461;-80
2022/08/27 10:52:24;;;;;;;7.53;1.35;;;20.80;99.90;;;;;;5062682;28;20069;-81
2022/08/27 10:55:09;;;;;;;8.13;1.20;;;20.80;99.90;;;;;;5051129;28;20052;-80
2022/08/27 10:57:47;;;;;;;4.18;1.10;;;20.70;99.90;;;;;;5051751;28;20044;-79
2022/08/27 11:00:18;;;;;;;6.13;1.23;;;20.50;99.90;;;;;;5064934;28;20044;-79
2022/08/27 11:02:57;;;;;;;6.22;1.48;;;20.60;99.90;;;;;;5066968;28;20037;-79
2022/08/27 11:05:27;;;;;;;4.97;1.42;;;21.00;99.90;;;;;;5070702;28;20056;-81
2022/08/27 11:08:06;;;;;;;6.57;1.00;;;21.60;99.90;;;;;;5054240;28;20048;-80
2022/08/27 11:10:37;;;;;;;6.25;1.27;;;21.90;99.90;;;;;;5054423;28;20033;-80
2022/08/27 11:13:11;;;;;;;4.50;1.13;;;21.90;99.90;;;;;;5055590;28;20534;-79
2022/08/27 11:15:42;;;;;;;6.45;1.23;;;22.00;99.90;;;;;;5067861;28;20566;-80
2022/08/27 11:18:14;;;;;;;6.28;1.02;;;21.90;99.90;;;;;;5070889;28;20028;-80
2022/08/27 11:20:58;;;;;;;6.35;1.38;;;21.90;99.90;;;;;;5064257;28;20041;-81
2022/08/27 11:23:36;;;;;;;4.50;1.00;;;21.80;99.90;;;;;;5054077;28;20040;-79
2022/08/27 11:26:04;;;;;;;6.82;1.13;;;21.70;99.90;;;;;;5020646;28;20094;-80
2022/08/27 11:28:46;;;;;;;5.65;1.30;;;21.80;99.90;;;;;;5049896;28;20530;-79
2022/08/27 11:31:31;;;;;;;4.75;1.27;;;22.10;99.90;;;;;;5054014;28;20052;-82
2022/08/27 11:34:06;;;;;;;4.32;0.90;;;22.60;99.90;;;;;;5053796;28;20045;-81
2022/08/27 11:36:41;;;;;;;8.00;1.15;;;22.70;99.90;;;;;;5053610;28;20049;-80
2022/08/27 11:39:43;;;;;;;5.40;1.15;;;23.10;99.90;;;;;;5036986;28;20075;-80
2022/08/27 11:42:41;;;;;;;3.42;0.82;;;23.30;99.90;;;;;;5045536;28;20049;-80
2022/08/27 11:45:15;;;;;;;3.38;1.00;;;23.20;99.90;;;;;;5024214;28;20069;-80
2022/08/27 11:47:51;;;;;;;2.05;0.70;;;23.20;99.90;;;;;;5037419;28;20033;-79
2022/08/27 11:50:19;;;;;;;5.05;1.00;;;23.70;99.70;;;;;;5037717;28;20063;-81
2022/08/27 11:52:56;;;;;;;5.15;1.08;;;24.10;99.50;;;;;;5053732;28;20037;-79
2022/08/27 11:55:25;;;;;;;6.65;1.15;;;24.20;98.50;;;;;;5051686;28;20113;-80
2022/08/27 11:58:21;;;;;;;6.25;1.20;;;24.00;99.50;;;;;;5052831;28;20135;-79
2022/08/27 12:00:47;;;;;;;5.22;0.93;;;23.70;99.80;;;;;;5028875;28;20037;-78
2022/08/27 12:03:32;;;;;;;4.20;1.10;;;23.60;99.90;;;;;;5052913;28;20498;-78
2022/08/27 12:05:57;;;;;;;3.92;0.95;;;23.70;99.90;;;;;;5053124;28;20036;-79
2022/08/27 12:08:23;;;;;;;4.25;0.85;;;24.10;99.90;;;;;;5053727;28;20476;-79
2022/08/27 12:11:14;;;;;;;4.22;0.90;;;24.50;99.50;;;;;;5054354;28;20047;-78
2022/08/27 12:13:54;;;;;;;5.43;0.90;;;24.90;98.80;;;;;;5053897;28;20045;-79
2022/08/27 12:16:31;;;;;;;4.47;1.08;;;24.50;98.10;;;;;;5053065;28;20045;-78
2022/08/27 12:19:18;;;;;;;3.92;1.05;;;24.70;98.50;;;;;;5063298;28;20033;-78
2022/08/27 12:22:00;;;;;;;7.15;1.08;;;24.70;97.90;;;;;;5051554;28;20041;-81
2022/08/27 12:24:50;;;;;;;5.53;0.82;;;25.00;98.40;;;;;;5049555;28;20052;-78
2022/08/27 12:27:27;;;;;;;6.13;1.20;;;25.30;98.70;;;;;;5052900;28;20507;-80
2022/08/27 12:30:05;;;;;;;4.30;1.10;;;25.10;95.80;;;;;;5051504;28;20033;-78
2022/08/27 12:32:43;;;;;;;4.78;1.10;;;25.20;97.50;;;;;;5047073;28;20517;-77
2022/08/27 12:35:25;;;;;;;2.40;0.70;;;24.80;97.60;;;;;;5048509;28;20052;-77
2022/08/27 12:37:54;;;;;;;4.72;0.80;;;24.40;96.80;;;;;;5042477;28;20419;-78
2022/08/27 12:40:23;;;;;;;4.90;1.10;;;24.20;97.20;;;;;;5050548;28;20517;-78
2022/08/27 12:42:49;;;;;;;5.47;1.10;;;24.40;97.00;;;;;;5049286;28;20094;-77
2022/08/27 12:45:23;;;;;;;3.92;0.80;;;24.80;97.00;;;;;;5052840;28;20037;-78
2022/08/27 12:47:49;;;;;;;5.45;1.00;;;24.70;95.90;;;;;;5039663;28;20037;-78
2022/08/27 12:50:20;;;;;;;6.05;0.93;;;25.10;96.20;;;;;;5041862;28;20033;-78
2022/08/27 12:52:55;;;;;;;4.15;1.15;;;24.90;94.60;;;;;;5042186;28;20072;-77
2022/08/27 12:55:58;;;;;;;3.58;1.00;;;24.90;96.40;;;;;;5033898;28;20052;-79
2022/08/27 12:58:50;;;;;;;3.63;0.90;;;24.40;96.20;;;;;;5045548;28;20049;-78
2022/08/27 13:01:53;;;;;;;5.55;0.95;;;24.10;95.80;;;;;;5031146;28;20143;-78
2022/08/27 13:04:26;;;;;;;3.55;1.20;;;23.80;95.30;;;;;;5025763;28;20072;-78
2022/08/27 13:06:51;;;;;;;3.28;0.73;;;24.20;96.20;;;;;;5020874;28;20107;-77
2022/08/27 13:09:30;;;;;;;9.35;1.20;;;24.40;96.20;;;;;;5035945;28;20025;-78